IGO99 VOBL-VABB
Flight info
| Callsign | IGO99 |
|---|---|
| Flight time | 1h 17m |
| Altitude | 38000 |
| Route | VOBL VAGP7B VAGPU Q8 AGELA MOLG2A VABB |
| Aircraft | A20N/H-SDE2E3FGHIJ1RWXY/LB1 |
Departure
| Time | 2026-04-30 09:32 |
|---|---|
| Airport | Kempegowda International Airport Bengaluru (VOBL) |
Arrival
| Time | 2026-04-30 10:49 |
|---|---|
| Airport | Chhatrapati Shivaji Maharaj International Airport (VABB) |
| Time | Latitude | Longitude | Altitude | Speed | Heading |
|---|---|---|---|---|---|
| 2026-04-30 09:08 | 13.20170 | 77.70795 | 2964 ft | 0 kts | 180° |
| 2026-04-30 09:19 | 13.20187 | 77.70795 | 2970 ft | 3 kts | 176° |
| 2026-04-30 09:19 | 13.20205 | 77.70794 | 2944 ft | 3 kts | 176° |
| 2026-04-30 09:19 | 13.20223 | 77.70792 | 2948 ft | 3 kts | 176° |
| 2026-04-30 09:20 | 13.20241 | 77.70791 | 2953 ft | 3 kts | 167° |
| 2026-04-30 09:20 | 13.20257 | 77.70783 | 2948 ft | 3 kts | 137° |
| 2026-04-30 09:20 | 13.20268 | 77.70769 | 2953 ft | 3 kts | 117° |
| 2026-04-30 09:20 | 13.20270 | 77.70766 | 2953 ft | 0 kts | 110° |
| 2026-04-30 09:21 | 13.20269 | 77.70768 | 2953 ft | 1 kts | 110° |
| 2026-04-30 09:21 | 13.20266 | 77.70777 | 2948 ft | 2 kts | 111° |
| 2026-04-30 09:21 | 13.20265 | 77.70779 | 2948 ft | 0 kts | 111° |
| 2026-04-30 09:24 | 13.20265 | 77.70781 | 2964 ft | 2 kts | 109° |
| 2026-04-30 09:24 | 13.20263 | 77.70805 | 2964 ft | 0 kts | 89° |
| 2026-04-30 09:24 | 13.20263 | 77.70807 | 2964 ft | 1 kts | 88° |
| 2026-04-30 09:25 | 13.20264 | 77.70878 | 2962 ft | 26 kts | 89° |
| 2026-04-30 09:25 | 13.20320 | 77.71010 | 2953 ft | 10 kts | 50° |
| 2026-04-30 09:25 | 13.20326 | 77.71044 | 2955 ft | 1 kts | 115° |
| 2026-04-30 09:25 | 13.20271 | 77.71104 | 2950 ft | 16 kts | 116° |
| 2026-04-30 09:26 | 13.20297 | 77.71171 | 2945 ft | 10 kts | 20° |
| 2026-04-30 09:26 | 13.20329 | 77.71176 | 2955 ft | 0 kts | 6° |
| 2026-04-30 09:27 | 13.20378 | 77.71177 | 2943 ft | 15 kts | 357° |
| 2026-04-30 09:27 | 13.20473 | 77.71181 | 2953 ft | 13 kts | 11° |
| 2026-04-30 09:28 | 13.20522 | 77.71238 | 2949 ft | 9 kts | 87° |
| 2026-04-30 09:28 | 13.20522 | 77.71257 | 2954 ft | 0 kts | 87° |
| 2026-04-30 09:28 | 13.20522 | 77.71388 | 2946 ft | 32 kts | 90° |
| 2026-04-30 09:28 | 13.20520 | 77.71621 | 2944 ft | 33 kts | 90° |
| 2026-04-30 09:29 | 13.20521 | 77.71850 | 2935 ft | 31 kts | 93° |
| 2026-04-30 09:29 | 13.20517 | 77.72071 | 2936 ft | 31 kts | 90° |
| 2026-04-30 09:29 | 13.20518 | 77.72227 | 2933 ft | 11 kts | 84° |
| 2026-04-30 09:29 | 13.20534 | 77.72265 | 2929 ft | 5 kts | 49° |
| 2026-04-30 09:30 | 13.20565 | 77.72280 | 2932 ft | 7 kts | 13° |
| 2026-04-30 09:30 | 13.20579 | 77.72282 | 2932 ft | 0 kts | 6° |
| 2026-04-30 09:31 | 13.20628 | 77.72282 | 2932 ft | 21 kts | 356° |
| 2026-04-30 09:31 | 13.20688 | 77.72221 | 2931 ft | 10 kts | 274° |
| 2026-04-30 09:31 | 13.20691 | 77.71974 | 2938 ft | 72 kts | 270° |
| 2026-04-30 09:31 | 13.20695 | 77.71165 | 2957 ft | 154 kts | 270° |
| 2026-04-30 09:32 | 13.20669 | 77.69930 | 3438 ft | 182 kts | 268° |
| 2026-04-30 09:32 | 13.20899 | 77.68581 | 4006 ft | 209 kts | 296° |
| 2026-04-30 09:32 | 13.21711 | 77.67162 | 4302 ft | 254 kts | 302° |
| 2026-04-30 09:32 | 13.22729 | 77.65482 | 4558 ft | 300 kts | 301° |
| 2026-04-30 09:33 | 13.23839 | 77.63593 | 4814 ft | 340 kts | 301° |
| 2026-04-30 09:33 | 13.25142 | 77.61315 | 5267 ft | 358 kts | 300° |
| 2026-04-30 09:33 | 13.26324 | 77.59207 | 5556 ft | 322 kts | 300° |
| 2026-04-30 09:33 | 13.27376 | 77.57303 | 5784 ft | 291 kts | 299° |
| 2026-04-30 09:34 | 13.28333 | 77.55560 | 6006 ft | 274 kts | 299° |
| 2026-04-30 09:34 | 13.29268 | 77.53859 | 6261 ft | 275 kts | 299° |
| 2026-04-30 09:34 | 13.30286 | 77.52193 | 6490 ft | 275 kts | 312° |
| 2026-04-30 09:34 | 13.31881 | 77.51158 | 6703 ft | 276 kts | 345° |
| 2026-04-30 09:35 | 13.33788 | 77.51178 | 6909 ft | 279 kts | 16° |
| 2026-04-30 09:35 | 13.35447 | 77.52199 | 6970 ft | 282 kts | 39° |
| 2026-04-30 09:35 | 13.36892 | 77.53526 | 7015 ft | 284 kts | 40° |
| 2026-04-30 09:35 | 13.38442 | 77.54825 | 7473 ft | 289 kts | 36° |
| 2026-04-30 09:36 | 13.40073 | 77.56029 | 8369 ft | 288 kts | 34° |
| 2026-04-30 09:36 | 13.41754 | 77.57172 | 9259 ft | 289 kts | 32° |
| 2026-04-30 09:36 | 13.43466 | 77.58274 | 10089 ft | 292 kts | 32° |
| 2026-04-30 09:36 | 13.45232 | 77.59377 | 10644 ft | 304 kts | 31° |
| 2026-04-30 09:37 | 13.47111 | 77.60530 | 10916 ft | 326 kts | 31° |
| 2026-04-30 09:37 | 13.49106 | 77.61711 | 10962 ft | 333 kts | 27° |
| 2026-04-30 09:37 | 13.51291 | 77.62534 | 11135 ft | 338 kts | 11° |
| 2026-04-30 09:37 | 13.53675 | 77.62616 | 11847 ft | 341 kts | 352° |
| 2026-04-30 09:38 | 13.55926 | 77.61950 | 12641 ft | 342 kts | 338° |
| 2026-04-30 09:38 | 13.58086 | 77.60916 | 13413 ft | 344 kts | 334° |
| 2026-04-30 09:38 | 13.60235 | 77.59805 | 14098 ft | 347 kts | 333° |
| 2026-04-30 09:38 | 13.62407 | 77.58676 | 14755 ft | 350 kts | 333° |
| 2026-04-30 09:39 | 13.64591 | 77.57547 | 15444 ft | 353 kts | 334° |
| 2026-04-30 09:39 | 13.66795 | 77.56413 | 16126 ft | 355 kts | 334° |
| 2026-04-30 09:39 | 13.69011 | 77.55278 | 16803 ft | 358 kts | 334° |
| 2026-04-30 09:39 | 13.71259 | 77.54129 | 17451 ft | 361 kts | 334° |
| 2026-04-30 09:40 | 13.73522 | 77.52973 | 18094 ft | 364 kts | 334° |
| 2026-04-30 09:40 | 13.75805 | 77.51807 | 18647 ft | 368 kts | 334° |
| 2026-04-30 09:40 | 13.78110 | 77.50631 | 19189 ft | 370 kts | 333° |
| 2026-04-30 09:40 | 13.80398 | 77.49462 | 19719 ft | 374 kts | 333° |
| 2026-04-30 09:41 | 13.82738 | 77.48266 | 20237 ft | 377 kts | 333° |
| 2026-04-30 09:41 | 13.85093 | 77.47062 | 20763 ft | 381 kts | 332° |
| 2026-04-30 09:41 | 13.86706 | 77.46236 | 21120 ft | 383 kts | 332° |
| 2026-04-30 09:41 | 13.89107 | 77.45007 | 21646 ft | 387 kts | 332° |
| 2026-04-30 09:42 | 13.92322 | 77.43362 | 22355 ft | 392 kts | 332° |
| 2026-04-30 09:42 | 13.93981 | 77.42513 | 22723 ft | 395 kts | 332° |
| 2026-04-30 09:42 | 13.96451 | 77.41250 | 23249 ft | 398 kts | 331° |
| 2026-04-30 09:42 | 13.98946 | 77.39973 | 23752 ft | 402 kts | 331° |
| 2026-04-30 09:43 | 14.01458 | 77.38688 | 24223 ft | 404 kts | 331° |
| 2026-04-30 09:43 | 14.03982 | 77.37397 | 24676 ft | 406 kts | 331° |
| 2026-04-30 09:43 | 14.06526 | 77.36095 | 25130 ft | 408 kts | 332° |
| 2026-04-30 09:43 | 14.09046 | 77.34805 | 25567 ft | 410 kts | 331° |
| 2026-04-30 09:44 | 14.11617 | 77.33488 | 25997 ft | 413 kts | 332° |
| 2026-04-30 09:44 | 14.14206 | 77.32162 | 26421 ft | 415 kts | 332° |
| 2026-04-30 09:44 | 14.16795 | 77.30835 | 26829 ft | 417 kts | 332° |
| 2026-04-30 09:44 | 14.19402 | 77.29499 | 27234 ft | 419 kts | 332° |
| 2026-04-30 09:45 | 14.22026 | 77.28153 | 27638 ft | 421 kts | 332° |
| 2026-04-30 09:45 | 14.24654 | 77.26805 | 28017 ft | 423 kts | 332° |
| 2026-04-30 09:45 | 14.27299 | 77.25446 | 28397 ft | 425 kts | 332° |
| 2026-04-30 09:45 | 14.29925 | 77.24097 | 28772 ft | 427 kts | 332° |
| 2026-04-30 09:46 | 14.32625 | 77.22711 | 29152 ft | 429 kts | 332° |
| 2026-04-30 09:46 | 14.35306 | 77.21335 | 29526 ft | 431 kts | 332° |
| 2026-04-30 09:46 | 14.37961 | 77.19974 | 29869 ft | 433 kts | 332° |
| 2026-04-30 09:46 | 14.40667 | 77.18585 | 30179 ft | 435 kts | 332° |
| 2026-04-30 09:47 | 14.43375 | 77.17195 | 30455 ft | 437 kts | 332° |
| 2026-04-30 09:47 | 14.46120 | 77.15788 | 30723 ft | 439 kts | 332° |
| 2026-04-30 09:47 | 14.48865 | 77.14378 | 30986 ft | 441 kts | 332° |
| 2026-04-30 09:47 | 14.51619 | 77.12964 | 31302 ft | 442 kts | 332° |
| 2026-04-30 09:48 | 14.54363 | 77.11553 | 31695 ft | 441 kts | 332° |
| 2026-04-30 09:48 | 14.57106 | 77.10143 | 32078 ft | 440 kts | 333° |
| 2026-04-30 09:48 | 14.59896 | 77.08844 | 32425 ft | 440 kts | 338° |
| 2026-04-30 09:48 | 14.62770 | 77.07740 | 32777 ft | 439 kts | 339° |
| 2026-04-30 09:49 | 14.65650 | 77.06686 | 33139 ft | 439 kts | 340° |
| 2026-04-30 09:49 | 14.68524 | 77.05642 | 33487 ft | 438 kts | 340° |
| 2026-04-30 09:49 | 14.71373 | 77.04606 | 33823 ft | 438 kts | 340° |
| 2026-04-30 09:49 | 14.74247 | 77.03560 | 34116 ft | 438 kts | 340° |
| 2026-04-30 09:50 | 14.77116 | 77.02514 | 34439 ft | 436 kts | 340° |
| 2026-04-30 09:50 | 14.79982 | 77.01468 | 34770 ft | 434 kts | 340° |
| 2026-04-30 09:50 | 14.82821 | 77.00431 | 35096 ft | 433 kts | 340° |
| 2026-04-30 09:50 | 14.85662 | 76.99393 | 35414 ft | 431 kts | 340° |
| 2026-04-30 09:51 | 14.88491 | 76.98359 | 35722 ft | 430 kts | 340° |
| 2026-04-30 09:51 | 14.91312 | 76.97327 | 36002 ft | 429 kts | 340° |
| 2026-04-30 09:51 | 14.94087 | 76.96312 | 36273 ft | 428 kts | 340° |
| 2026-04-30 09:51 | 14.96889 | 76.95287 | 36562 ft | 427 kts | 340° |
| 2026-04-30 09:52 | 14.99690 | 76.94262 | 36828 ft | 426 kts | 340° |
| 2026-04-30 09:52 | 15.02485 | 76.93239 | 37090 ft | 425 kts | 340° |
| 2026-04-30 09:52 | 15.05277 | 76.92216 | 37355 ft | 424 kts | 340° |
| 2026-04-30 09:52 | 15.08070 | 76.91193 | 37621 ft | 423 kts | 340° |
| 2026-04-30 09:53 | 15.10844 | 76.90177 | 37834 ft | 423 kts | 340° |
| 2026-04-30 09:53 | 15.13612 | 76.89162 | 37870 ft | 420 kts | 340° |
| 2026-04-30 09:53 | 15.19061 | 76.87164 | 37863 ft | 416 kts | 340° |
| 2026-04-30 09:54 | 15.24512 | 76.85165 | 37861 ft | 415 kts | 340° |
| 2026-04-30 09:54 | 15.30000 | 76.83149 | 37863 ft | 415 kts | 340° |
| 2026-04-30 09:55 | 15.35458 | 76.81144 | 37855 ft | 415 kts | 340° |
| 2026-04-30 09:55 | 15.40907 | 76.79141 | 37844 ft | 415 kts | 340° |
| 2026-04-30 09:56 | 15.46328 | 76.77147 | 37847 ft | 415 kts | 340° |
| 2026-04-30 09:56 | 15.51818 | 76.75126 | 37832 ft | 415 kts | 340° |
| 2026-04-30 09:57 | 15.57264 | 76.73121 | 37835 ft | 415 kts | 340° |
| 2026-04-30 09:57 | 15.62676 | 76.71127 | 37839 ft | 415 kts | 340° |
| 2026-04-30 09:58 | 15.67999 | 76.68705 | 37835 ft | 415 kts | 328° |
| 2026-04-30 09:58 | 15.72296 | 76.64745 | 37825 ft | 416 kts | 311° |
| 2026-04-30 09:59 | 15.79477 | 76.55220 | 37840 ft | 419 kts | 309° |
| 2026-04-30 10:00 | 15.84875 | 76.48031 | 37840 ft | 419 kts | 309° |
| 2026-04-30 10:01 | 15.90239 | 76.40894 | 37839 ft | 418 kts | 309° |
| 2026-04-30 10:02 | 15.95615 | 76.33735 | 37841 ft | 418 kts | 309° |
| 2026-04-30 10:02 | 15.99220 | 76.28931 | 37850 ft | 418 kts | 309° |
| 2026-04-30 10:03 | 16.02774 | 76.24192 | 37848 ft | 418 kts | 309° |
| 2026-04-30 10:03 | 16.06375 | 76.19387 | 37853 ft | 418 kts | 309° |
| 2026-04-30 10:04 | 16.09950 | 76.14614 | 37855 ft | 418 kts | 309° |
| 2026-04-30 10:04 | 16.13528 | 76.09834 | 37855 ft | 418 kts | 309° |
| 2026-04-30 10:05 | 16.17085 | 76.05078 | 37857 ft | 419 kts | 309° |
| 2026-04-30 10:05 | 16.20685 | 76.00261 | 37862 ft | 419 kts | 309° |
| 2026-04-30 10:06 | 16.24259 | 75.95476 | 37863 ft | 419 kts | 309° |
| 2026-04-30 10:06 | 16.27813 | 75.90716 | 37865 ft | 419 kts | 309° |
| 2026-04-30 10:07 | 16.31395 | 75.85914 | 37864 ft | 419 kts | 309° |
| 2026-04-30 10:07 | 16.34964 | 75.81126 | 37866 ft | 419 kts | 309° |
| 2026-04-30 10:08 | 16.38545 | 75.76319 | 37868 ft | 419 kts | 309° |
| 2026-04-30 10:08 | 16.42121 | 75.71516 | 37875 ft | 419 kts | 309° |
| 2026-04-30 10:09 | 16.45697 | 75.66710 | 37871 ft | 419 kts | 309° |
| 2026-04-30 10:09 | 16.49276 | 75.61896 | 37874 ft | 419 kts | 308° |
| 2026-04-30 10:10 | 16.52852 | 75.57082 | 37873 ft | 419 kts | 308° |
| 2026-04-30 10:10 | 16.56406 | 75.52296 | 37873 ft | 419 kts | 308° |
| 2026-04-30 10:11 | 16.59395 | 75.48268 | 37869 ft | 419 kts | 308° |
| 2026-04-30 10:11 | 16.62994 | 75.43478 | 37877 ft | 419 kts | 309° |
| 2026-04-30 10:12 | 16.66612 | 75.38704 | 37877 ft | 419 kts | 309° |
| 2026-04-30 10:12 | 16.70225 | 75.33934 | 37876 ft | 419 kts | 309° |
| 2026-04-30 10:13 | 16.73846 | 75.29148 | 37885 ft | 419 kts | 309° |
| 2026-04-30 10:13 | 16.77435 | 75.24401 | 37883 ft | 419 kts | 309° |
| 2026-04-30 10:14 | 16.81050 | 75.19616 | 37882 ft | 419 kts | 309° |
| 2026-04-30 10:14 | 16.86471 | 75.12434 | 37884 ft | 419 kts | 309° |
| 2026-04-30 10:15 | 16.90103 | 75.07618 | 37882 ft | 419 kts | 309° |
| 2026-04-30 10:15 | 16.93692 | 75.02856 | 37885 ft | 419 kts | 309° |
| 2026-04-30 10:16 | 16.97300 | 74.98065 | 37889 ft | 419 kts | 309° |
| 2026-04-30 10:17 | 17.02720 | 74.90862 | 37886 ft | 419 kts | 309° |
| 2026-04-30 10:17 | 17.08125 | 74.83672 | 37886 ft | 419 kts | 309° |
| 2026-04-30 10:18 | 17.11722 | 74.78883 | 37881 ft | 419 kts | 309° |
| 2026-04-30 10:19 | 17.17119 | 74.71690 | 37877 ft | 419 kts | 309° |
| 2026-04-30 10:19 | 17.20715 | 74.66894 | 37876 ft | 419 kts | 309° |
| 2026-04-30 10:20 | 17.24318 | 74.62085 | 37877 ft | 418 kts | 309° |
| 2026-04-30 10:20 | 17.29707 | 74.54886 | 37874 ft | 418 kts | 309° |
| 2026-04-30 10:21 | 17.33290 | 74.50095 | 37873 ft | 418 kts | 309° |
| 2026-04-30 10:21 | 17.36871 | 74.45303 | 37870 ft | 418 kts | 309° |
| 2026-04-30 10:22 | 17.40455 | 74.40504 | 37870 ft | 417 kts | 309° |
| 2026-04-30 10:22 | 17.44033 | 74.35709 | 37867 ft | 417 kts | 309° |
| 2026-04-30 10:23 | 17.47610 | 74.30913 | 37868 ft | 419 kts | 309° |
| 2026-04-30 10:23 | 17.51220 | 74.26069 | 37875 ft | 421 kts | 309° |
| 2026-04-30 10:24 | 17.54826 | 74.21225 | 37873 ft | 421 kts | 309° |
| 2026-04-30 10:24 | 17.58430 | 74.16382 | 37872 ft | 421 kts | 309° |
| 2026-04-30 10:25 | 17.62026 | 74.11545 | 37875 ft | 418 kts | 309° |
| 2026-04-30 10:25 | 17.65626 | 74.06701 | 37323 ft | 424 kts | 308° |
| 2026-04-30 10:26 | 17.67457 | 74.04244 | 36428 ft | 431 kts | 309° |
| 2026-04-30 10:26 | 17.69298 | 74.01777 | 35531 ft | 438 kts | 309° |
| 2026-04-30 10:26 | 17.71187 | 73.99244 | 34711 ft | 443 kts | 309° |
| 2026-04-30 10:26 | 17.73091 | 73.96683 | 34046 ft | 444 kts | 309° |
| 2026-04-30 10:27 | 17.74989 | 73.94128 | 33370 ft | 443 kts | 309° |
| 2026-04-30 10:27 | 17.76861 | 73.91603 | 32615 ft | 444 kts | 309° |
| 2026-04-30 10:27 | 17.78760 | 73.89042 | 31809 ft | 445 kts | 309° |
| 2026-04-30 10:27 | 17.80668 | 73.86466 | 31025 ft | 446 kts | 309° |
| 2026-04-30 10:28 | 17.82576 | 73.83889 | 30229 ft | 448 kts | 309° |
| 2026-04-30 10:28 | 17.84519 | 73.81264 | 29302 ft | 450 kts | 309° |
| 2026-04-30 10:28 | 17.86445 | 73.78661 | 28298 ft | 452 kts | 308° |
| 2026-04-30 10:28 | 17.88342 | 73.76096 | 27739 ft | 445 kts | 309° |
| 2026-04-30 10:29 | 17.90212 | 73.73563 | 27475 ft | 432 kts | 308° |
| 2026-04-30 10:29 | 17.92029 | 73.71097 | 27219 ft | 418 kts | 309° |
| 2026-04-30 10:29 | 17.93784 | 73.68715 | 26931 ft | 407 kts | 309° |
| 2026-04-30 10:29 | 17.95506 | 73.66379 | 26408 ft | 402 kts | 309° |
| 2026-04-30 10:30 | 17.97235 | 73.64035 | 25858 ft | 399 kts | 309° |
| 2026-04-30 10:30 | 17.98907 | 73.61768 | 25332 ft | 396 kts | 309° |
| 2026-04-30 10:30 | 18.00588 | 73.59490 | 24806 ft | 393 kts | 309° |
| 2026-04-30 10:30 | 18.02257 | 73.57225 | 24279 ft | 390 kts | 309° |
| 2026-04-30 10:31 | 18.03915 | 73.54976 | 23758 ft | 388 kts | 309° |
| 2026-04-30 10:31 | 18.05563 | 73.52739 | 23179 ft | 386 kts | 309° |
| 2026-04-30 10:31 | 18.07202 | 73.50515 | 22599 ft | 382 kts | 309° |
| 2026-04-30 10:31 | 18.08820 | 73.48318 | 22080 ft | 378 kts | 309° |
| 2026-04-30 10:32 | 18.10421 | 73.46143 | 21561 ft | 373 kts | 309° |
| 2026-04-30 10:32 | 18.12005 | 73.43990 | 21047 ft | 369 kts | 308° |
| 2026-04-30 10:32 | 18.13569 | 73.41864 | 20538 ft | 365 kts | 308° |
| 2026-04-30 10:32 | 18.15151 | 73.39792 | 19970 ft | 363 kts | 313° |
| 2026-04-30 10:33 | 18.17095 | 73.38137 | 19501 ft | 358 kts | 330° |
| 2026-04-30 10:33 | 18.19354 | 73.36970 | 19010 ft | 355 kts | 336° |
| 2026-04-30 10:33 | 18.21613 | 73.35961 | 18657 ft | 349 kts | 336° |
| 2026-04-30 10:33 | 18.23833 | 73.34989 | 18279 ft | 343 kts | 336° |
| 2026-04-30 10:34 | 18.26049 | 73.34013 | 17791 ft | 339 kts | 336° |
| 2026-04-30 10:34 | 18.28216 | 73.33053 | 17281 ft | 337 kts | 336° |
| 2026-04-30 10:34 | 18.30372 | 73.32095 | 16727 ft | 335 kts | 336° |
| 2026-04-30 10:34 | 18.32548 | 73.31123 | 15810 ft | 345 kts | 336° |
| 2026-04-30 10:35 | 18.34805 | 73.30114 | 14826 ft | 357 kts | 336° |
| 2026-04-30 10:35 | 18.37092 | 73.29092 | 14398 ft | 350 kts | 335° |
| 2026-04-30 10:35 | 18.39264 | 73.28121 | 14162 ft | 338 kts | 335° |
| 2026-04-30 10:35 | 18.41393 | 73.27169 | 13931 ft | 327 kts | 335° |
| 2026-04-30 10:36 | 18.43468 | 73.26240 | 13496 ft | 323 kts | 335° |
| 2026-04-30 10:36 | 18.45533 | 73.25316 | 12981 ft | 321 kts | 335° |
| 2026-04-30 10:36 | 18.46900 | 73.24704 | 12648 ft | 320 kts | 335° |
| 2026-04-30 10:36 | 18.48944 | 73.23788 | 12136 ft | 318 kts | 335° |
| 2026-04-30 10:37 | 18.50978 | 73.22877 | 11634 ft | 316 kts | 334° |
| 2026-04-30 10:37 | 18.52999 | 73.21970 | 11154 ft | 314 kts | 334° |
| 2026-04-30 10:37 | 18.55009 | 73.21067 | 10691 ft | 312 kts | 334° |
| 2026-04-30 10:37 | 18.56998 | 73.20175 | 10234 ft | 310 kts | 334° |
| 2026-04-30 10:38 | 18.58979 | 73.19287 | 9807 ft | 306 kts | 334° |
| 2026-04-30 10:38 | 18.60911 | 73.18421 | 9520 ft | 297 kts | 334° |
| 2026-04-30 10:38 | 18.62795 | 73.17575 | 9178 ft | 291 kts | 334° |
| 2026-04-30 10:38 | 18.64642 | 73.16742 | 8796 ft | 287 kts | 334° |
| 2026-04-30 10:39 | 18.66516 | 73.16028 | 8378 ft | 287 kts | 345° |
| 2026-04-30 10:39 | 18.68497 | 73.15783 | 7975 ft | 285 kts | 354° |
| 2026-04-30 10:39 | 18.70474 | 73.15714 | 7601 ft | 283 kts | 355° |
| 2026-04-30 10:39 | 18.72439 | 73.15673 | 7198 ft | 280 kts | 356° |
| 2026-04-30 10:40 | 18.74377 | 73.15632 | 6830 ft | 277 kts | 356° |
| 2026-04-30 10:40 | 18.76302 | 73.15589 | 6422 ft | 275 kts | 355° |
| 2026-04-30 10:40 | 18.78210 | 73.15543 | 5989 ft | 274 kts | 355° |
| 2026-04-30 10:40 | 18.80132 | 73.15494 | 5594 ft | 270 kts | 356° |
| 2026-04-30 10:41 | 18.82006 | 73.15446 | 5142 ft | 269 kts | 355° |
| 2026-04-30 10:41 | 18.83868 | 73.15398 | 4708 ft | 267 kts | 355° |
| 2026-04-30 10:41 | 18.85722 | 73.15352 | 4291 ft | 264 kts | 355° |
| 2026-04-30 10:41 | 18.87552 | 73.15305 | 3834 ft | 263 kts | 356° |
| 2026-04-30 10:42 | 18.89387 | 73.15258 | 3350 ft | 263 kts | 355° |
| 2026-04-30 10:42 | 18.91205 | 73.15205 | 3010 ft | 261 kts | 354° |
| 2026-04-30 10:42 | 18.92982 | 73.14911 | 2904 ft | 258 kts | 339° |
| 2026-04-30 10:42 | 18.94638 | 73.14186 | 2898 ft | 259 kts | 332° |
| 2026-04-30 10:43 | 18.96270 | 73.13345 | 3004 ft | 260 kts | 332° |
| 2026-04-30 10:43 | 18.97889 | 73.12492 | 3059 ft | 261 kts | 333° |
| 2026-04-30 10:43 | 18.99515 | 73.11637 | 3065 ft | 260 kts | 333° |
| 2026-04-30 10:43 | 19.01139 | 73.10787 | 3065 ft | 260 kts | 333° |
| 2026-04-30 10:44 | 19.02782 | 73.09929 | 3058 ft | 255 kts | 333° |
| 2026-04-30 10:44 | 19.04326 | 73.09122 | 3053 ft | 238 kts | 333° |
| 2026-04-30 10:44 | 19.05760 | 73.08374 | 3050 ft | 222 kts | 333° |
| 2026-04-30 10:44 | 19.07101 | 73.07681 | 3052 ft | 209 kts | 333° |
| 2026-04-30 10:45 | 19.08279 | 73.06858 | 3055 ft | 203 kts | 305° |
| 2026-04-30 10:45 | 19.08884 | 73.05535 | 3064 ft | 202 kts | 287° |
| 2026-04-30 10:45 | 19.09138 | 73.04060 | 3039 ft | 205 kts | 271° |
| 2026-04-30 10:45 | 19.09115 | 73.02576 | 2857 ft | 199 kts | 267° |
| 2026-04-30 10:46 | 19.09077 | 73.01159 | 2558 ft | 188 kts | 269° |
| 2026-04-30 10:46 | 19.09063 | 72.99805 | 2294 ft | 178 kts | 269° |
| 2026-04-30 10:46 | 19.09048 | 72.98531 | 2048 ft | 167 kts | 269° |
| 2026-04-30 10:46 | 19.09030 | 72.97339 | 1830 ft | 157 kts | 269° |
| 2026-04-30 10:47 | 19.09012 | 72.96223 | 1645 ft | 144 kts | 269° |
| 2026-04-30 10:47 | 19.08997 | 72.95207 | 1445 ft | 133 kts | 269° |
| 2026-04-30 10:47 | 19.08984 | 72.94256 | 1282 ft | 126 kts | 269° |
| 2026-04-30 10:47 | 19.08970 | 72.93342 | 1111 ft | 125 kts | 269° |
| 2026-04-30 10:48 | 19.08957 | 72.92420 | 955 ft | 125 kts | 269° |
| 2026-04-30 10:48 | 19.08943 | 72.91500 | 788 ft | 125 kts | 269° |
| 2026-04-30 10:48 | 19.08930 | 72.90582 | 618 ft | 124 kts | 269° |
| 2026-04-30 10:48 | 19.08916 | 72.89666 | 454 ft | 124 kts | 269° |
| 2026-04-30 10:49 | 19.08902 | 72.88753 | 282 ft | 124 kts | 269° |
| 2026-04-30 10:49 | 19.08889 | 72.87836 | 119 ft | 124 kts | 268° |
| 2026-04-30 10:49 | 19.08881 | 72.86950 | 40 ft | 112 kts | 262° |
| 2026-04-30 10:49 | 19.08864 | 72.86278 | 34 ft | 47 kts | 269° |
| 2026-04-30 10:50 | 19.08856 | 72.86042 | 32 ft | 30 kts | 261° |
| 2026-04-30 10:50 | 19.08778 | 72.85842 | 32 ft | 29 kts | 228° |
| 2026-04-30 10:50 | 19.08710 | 72.85759 | 31 ft | 0 kts | 229° |